Deepwater, Missouri
Current Conditions -  °F | °C
As of 12:15 PM on Monday 22 Dec 2014 (Local Time) from KGLY Reporting Station
Haze Haze  
Wind Chill: 43°   Ceiling: 300
Heat Index: 46°   Visibility: 0.75mi
Dew Point: 45°   Wind: 7mph
Humidity: 93%   Direction: 160°SSE
Pressure: 29.54"   Gusts: NA
Location:  38.26°N, 93.77°W
Report Text: KGLY 221815Z AUTO 16006KT 3/4SM BR OVC003 08/07 A2954 RMK AO2
Loading
Personal Weather Stations






























Interactive Weather Map New forecast layout! Learn more

10-Day Weather Forecast

Advertisements
Track Severe Weather on mobile